sensor_id;sensor_type;location;lat;lon;timestamp;pressure;altitude;pressure_sealevel;temperature;humidity
42125;BME280;27787;44.594;11.046;2024-03-23T00:55:27;100932.47;;;12.35;92.79
42125;BME280;27787;44.594;11.046;2024-03-23T00:58:11;100923.59;;;12.24;92.76
42125;BME280;27787;44.594;11.046;2024-03-23T01:00:56;100927.09;;;12.10;93.41
42125;BME280;27787;44.594;11.046;2024-03-23T01:03:40;100935.00;;;12.04;94.02
42125;BME280;27787;44.594;11.046;2024-03-23T01:06:24;100924.44;;;12.01;93.83
42125;BME280;27787;44.594;11.046;2024-03-23T01:09:08;100920.84;;;11.93;94.00
42125;BME280;27787;44.594;11.046;2024-03-23T01:11:54;100913.78;;;11.89;93.88
42125;BME280;27787;44.594;11.046;2024-03-23T01:14:38;100919.97;;;11.85;94.02
42125;BME280;27787;44.594;11.046;2024-03-23T01:17:23;100907.56;;;11.81;94.63
42125;BME280;27787;44.594;11.046;2024-03-23T01:20:07;100908.41;;;11.77;94.82
42125;BME280;27787;44.594;11.046;2024-03-23T01:22:52;100911.03;;;11.74;95.22
42125;BME280;27787;44.594;11.046;2024-03-23T01:25:36;100909.28;;;11.76;95.18
42125;BME280;27787;44.594;11.046;2024-03-23T01:28:21;100906.66;;;11.77;95.02
42125;BME280;27787;44.594;11.046;2024-03-23T01:31:05;100897.84;;;11.78;94.65
42125;BME280;27787;44.594;11.046;2024-03-23T01:33:49;100902.25;;;11.78;94.54
42125;BME280;27787;44.594;11.046;2024-03-23T01:36:33;100903.97;;;11.71;94.35
42125;BME280;27787;44.594;11.046;2024-03-23T01:39:17;100906.53;;;11.58;94.80
42125;BME280;27787;44.594;11.046;2024-03-23T01:42:01;100900.34;;;11.54;95.35
42125;BME280;27787;44.594;11.046;2024-03-23T01:44:45;100898.63;;;11.61;95.37
42125;BME280;27787;44.594;11.046;2024-03-23T01:47:29;100903.94;;;11.68;95.04
42125;BME280;27787;44.594;11.046;2024-03-23T01:50:14;100904.03;;;11.82;94.36
42125;BME280;27787;44.594;11.046;2024-03-23T01:52:58;100904.09;;;11.88;93.43
42125;BME280;27787;44.594;11.046;2024-03-23T01:55:43;100898.78;;;11.87;93.03
42125;BME280;27787;44.594;11.046;2024-03-23T01:58:28;100900.53;;;11.83;93.05
42125;BME280;27787;44.594;11.046;2024-03-23T02:01:12;100890.84;;;11.85;93.57
42125;BME280;27787;44.594;11.046;2024-03-23T02:03:56;100886.47;;;11.90;93.19
42125;BME280;27787;44.594;11.046;2024-03-23T02:06:41;100887.34;;;11.89;92.43
42125;BME280;27787;44.594;11.046;2024-03-23T02:09:25;100889.94;;;11.83;92.12
42125;BME280;27787;44.594;11.046;2024-03-23T02:12:09;100878.47;;;11.79;91.78
42125;BME280;27787;44.594;11.046;2024-03-23T02:14:54;100882.84;;;11.76;92.08
42125;BME280;27787;44.594;11.046;2024-03-23T02:17:39;100882.78;;;11.67;92.44
42125;BME280;27787;44.594;11.046;2024-03-23T02:20:23;100875.72;;;11.61;92.89
42125;BME280;27787;44.594;11.046;2024-03-23T02:23:17;100874.81;;;11.56;93.15
42125;BME280;27787;44.594;11.046;2024-03-23T02:26:04;100865.09;;;11.47;93.54
42125;BME280;27787;44.594;11.046;2024-03-23T02:28:48;100867.69;;;11.43;94.12
42125;BME280;27787;44.594;11.046;2024-03-23T02:31:32;100857.97;;;11.39;93.86
42125;BME280;27787;44.594;11.046;2024-03-23T02:34:17;100859.69;;;11.32;93.57
42125;BME280;27787;44.594;11.046;2024-03-23T02:37:01;100856.16;;;11.30;94.01
42125;BME280;27787;44.594;11.046;2024-03-23T02:39:46;100866.72;;;11.27;94.08
42125;BME280;27787;44.594;11.046;2024-03-23T02:42:29;100864.94;;;11.21;94.77
42125;BME280;27787;44.594;11.046;2024-03-23T02:45:14;100856.19;;;11.33;94.98
42125;BME280;27787;44.594;11.046;2024-03-23T02:47:58;100857.09;;;11.35;93.71
42125;BME280;27787;44.594;11.046;2024-03-23T02:50:42;100848.28;;;11.35;93.52
42125;BME280;27787;44.594;11.046;2024-03-23T02:53:27;100850.84;;;11.27;93.58
42125;BME280;27787;44.594;11.046;2024-03-23T02:56:11;100849.97;;;11.20;94.18
42125;BME280;27787;44.594;11.046;2024-03-23T02:59:00;100854.28;;;11.08;94.54
42125;BME280;27787;44.594;11.046;2024-03-23T03:01:44;100848.94;;;11.05;95.85
42125;BME280;27787;44.594;11.046;2024-03-23T03:04:28;100850.84;;;11.21;95.51
42125;BME280;27787;44.594;11.046;2024-03-23T03:07:13;100848.16;;;11.18;94.55
42125;BME280;27787;44.594;11.046;2024-03-23T03:09:57;100849.00;;;11.12;94.78
42125;BME280;27787;44.594;11.046;2024-03-23T03:12:42;100856.09;;;11.19;95.63
42125;BME280;27787;44.594;11.046;2024-03-23T03:15:26;100864.09;;;11.30;95.36
42125;BME280;27787;44.594;11.046;2024-03-23T03:18:10;100858.88;;;11.42;95.18
42125;BME280;27787;44.594;11.046;2024-03-23T03:20:54;100856.28;;;11.56;94.41
42125;BME280;27787;44.594;11.046;2024-03-23T03:23:39;100846.66;;;11.67;93.72
42125;BME280;27787;44.594;11.046;2024-03-23T03:26:23;100848.47;;;11.77;92.77
42125;BME280;27787;44.594;11.046;2024-03-23T03:29:08;100850.22;;;11.74;91.47
42125;BME280;27787;44.594;11.046;2024-03-23T03:31:52;100844.88;;;11.62;91.87
42125;BME280;27787;44.594;11.046;2024-03-23T03:34:36;100839.53;;;11.54;91.87
42125;BME280;27787;44.594;11.046;2024-03-23T03:37:21;100838.66;;;11.52;91.20
42125;BME280;27787;44.594;11.046;2024-03-23T03:40:06;100829.81;;;11.45;90.77
42125;BME280;27787;44.594;11.046;2024-03-23T03:42:52;100829.78;;;11.39;91.30
42125;BME280;27787;44.594;11.046;2024-03-23T03:45:37;100831.53;;;11.34;90.94
42125;BME280;27787;44.594;11.046;2024-03-23T03:48:21;100817.41;;;11.29;91.22
42125;BME280;27787;44.594;11.046;2024-03-23T03:51:05;100811.22;;;11.21;91.81
42125;BME280;27787;44.594;11.046;2024-03-23T03:53:49;100812.03;;;11.14;92.56
42125;BME280;27787;44.594;11.046;2024-03-23T03:56:34;100811.09;;;11.06;93.44
42125;BME280;27787;44.594;11.046;2024-03-23T03:59:18;100815.47;;;10.99;93.94
42125;BME280;27787;44.594;11.046;2024-03-23T04:02:03;100813.69;;;10.97;94.16
42125;BME280;27787;44.594;11.046;2024-03-23T04:04:47;100813.63;;;10.90;94.37
42125;BME280;27787;44.594;11.046;2024-03-23T04:07:31;100811.00;;;10.89;94.36
42125;BME280;27787;44.594;11.046;2024-03-23T04:10:16;100813.63;;;10.87;94.45
42125;BME280;27787;44.594;11.046;2024-03-23T04:13:01;100816.28;;;10.90;94.53
42125;BME280;27787;44.594;11.046;2024-03-23T04:15:45;100818.91;;;10.92;94.08
42125;BME280;27787;44.594;11.046;2024-03-23T04:18:29;100812.75;;;10.91;94.25
42125;BME280;27787;44.594;11.046;2024-03-23T04:21:13;100800.44;;;10.90;94.10
42125;BME280;27787;44.594;11.046;2024-03-23T04:23:58;100808.31;;;10.84;94.15
42125;BME280;27787;44.594;11.046;2024-03-23T04:26:43;100801.28;;;10.83;94.02
42125;BME280;27787;44.594;11.046;2024-03-23T04:29:27;100795.13;;;10.83;93.85
42125;BME280;27787;44.594;11.046;2024-03-23T04:32:12;100794.25;;;10.85;94.10
42125;BME280;27787;44.594;11.046;2024-03-23T04:34:55;100792.50;;;10.90;94.06
42125;BME280;27787;44.594;11.046;2024-03-23T04:37:40;100781.94;;;10.90;94.23
42125;BME280;27787;44.594;11.046;2024-03-23T04:40:27;100781.97;;;10.93;93.81
42125;BME280;27787;44.594;11.046;2024-03-23T04:43:11;100780.19;;;10.91;93.68
42125;BME280;27787;44.594;11.046;2024-03-23T04:45:56;100776.66;;;10.90;93.79
42125;BME280;27787;44.594;11.046;2024-03-23T04:48:40;100775.78;;;10.90;93.32
42125;BME280;27787;44.594;11.046;2024-03-23T04:51:25;100773.13;;;10.84;93.43
42125;BME280;27787;44.594;11.046;2024-03-23T04:54:10;100760.81;;;10.86;93.67
42125;BME280;27787;44.594;11.046;2024-03-23T04:56:54;100764.31;;;10.88;93.37
42125;BME280;27787;44.594;11.046;2024-03-23T04:59:39;100759.94;;;10.87;93.17
42125;BME280;27787;44.594;11.046;2024-03-23T05:02:23;100753.75;;;10.83;93.28
42125;BME280;27787;44.594;11.046;2024-03-23T05:05:09;100757.28;;;10.82;93.13
42125;BME280;27787;44.594;11.046;2024-03-23T05:07:54;100757.28;;;10.82;92.48
42125;BME280;27787;44.594;11.046;2024-03-23T05:10:38;100755.53;;;10.86;91.98
42125;BME280;27787;44.594;11.046;2024-03-23T05:13:22;100754.63;;;10.85;91.57
42125;BME280;27787;44.594;11.046;2024-03-23T05:16:06;100753.75;;;10.86;91.30
42125;BME280;27787;44.594;11.046;2024-03-23T05:18:50;100747.59;;;10.87;90.91
42125;BME280;27787;44.594;11.046;2024-03-23T05:21:34;100747.66;;;10.97;90.47
42125;BME280;27787;44.594;11.046;2024-03-23T05:24:19;100744.16;;;10.99;89.74
42125;BME280;27787;44.594;11.046;2024-03-23T05:27:03;100738.88;;;11.02;89.31
42125;BME280;27787;44.594;11.046;2024-03-23T05:29:47;100745.03;;;11.06;89.06
42125;BME280;27787;44.594;11.046;2024-03-23T05:32:31;100746.84;;;11.10;88.85
42125;BME280;27787;44.594;11.046;2024-03-23T05:35:16;100750.38;;;11.07;88.31
42125;BME280;27787;44.594;11.046;2024-03-23T05:38:00;100745.91;;;11.03;88.67
42125;BME280;27787;44.594;11.046;2024-03-23T05:40:56;100741.53;;;11.05;89.18
42125;BME280;27787;44.594;11.046;2024-03-23T05:43:40;100740.69;;;11.11;89.07
42125;BME280;27787;44.594;11.046;2024-03-23T05:46:24;100749.50;;;11.13;88.40
42125;BME280;27787;44.594;11.046;2024-03-23T05:49:08;100744.25;;;11.20;88.57
42125;BME280;27787;44.594;11.046;2024-03-23T05:51:53;100739.00;;;11.27;87.97
42125;BME280;27787;44.594;11.046;2024-03-23T05:54:37;100741.63;;;11.27;87.49
42125;BME280;27787;44.594;11.046;2024-03-23T05:57:22;100739.88;;;11.24;87.45
42125;BME280;27787;44.594;11.046;2024-03-23T06:00:06;100742.53;;;11.30;87.63
42125;BME280;27787;44.594;11.046;2024-03-23T06:02:55;100731.94;;;11.27;87.92
42125;BME280;27787;44.594;11.046;2024-03-23T06:05:40;100725.78;;;11.30;88.65
42125;BME280;27787;44.594;11.046;2024-03-23T06:08:24;100722.31;;;11.38;88.86
42125;BME280;27787;44.594;11.046;2024-03-23T06:11:09;100716.13;;;11.39;88.35
42125;BME280;27787;44.594;11.046;2024-03-23T06:13:53;100728.47;;;11.42;88.47
42125;BME280;27787;44.594;11.046;2024-03-23T06:16:37;100735.56;;;11.47;88.77
42125;BME280;27787;44.594;11.046;2024-03-23T06:19:21;100732.94;;;11.60;88.85
42125;BME280;27787;44.594;11.046;2024-03-23T06:22:05;100726.78;;;11.67;87.27
42125;BME280;27787;44.594;11.046;2024-03-23T06:24:50;100728.56;;;11.72;87.80
42125;BME280;27787;44.594;11.046;2024-03-23T06:27:34;100718.91;;;11.80;87.91
42125;BME280;27787;44.594;11.046;2024-03-23T06:30:19;100720.66;;;11.80;87.30
42125;BME280;27787;44.594;11.046;2024-03-23T06:33:03;100707.41;;;11.75;88.01
42125;BME280;27787;44.594;11.046;2024-03-23T06:35:51;100710.94;;;11.73;88.65
42125;BME280;27787;44.594;11.046;2024-03-23T06:38:37;100711.81;;;11.75;89.12
42125;BME280;27787;44.594;11.046;2024-03-23T06:41:22;100716.25;;;11.80;89.37
42125;BME280;27787;44.594;11.046;2024-03-23T06:44:06;100708.34;;;11.85;89.68
42125;BME280;27787;44.594;11.046;2024-03-23T06:46:50;100715.41;;;11.92;90.17
42125;BME280;27787;44.594;11.046;2024-03-23T06:49:35;100720.72;;;12.01;89.50
42125;BME280;27787;44.594;11.046;2024-03-23T06:52:19;100718.06;;;12.07;89.04
42125;BME280;27787;44.594;11.046;2024-03-23T06:55:04;100713.66;;;12.13;89.68
42125;BME280;27787;44.594;11.046;2024-03-23T06:57:50;100716.31;;;12.17;89.81
42125;BME280;27787;44.594;11.046;2024-03-23T07:00:34;100711.00;;;12.19;88.98
42125;BME280;27787;44.594;11.046;2024-03-23T07:03:18;100705.69;;;12.23;89.51
42125;BME280;27787;44.594;11.046;2024-03-23T07:06:03;100705.69;;;12.34;89.50
42125;BME280;27787;44.594;11.046;2024-03-23T07:08:47;100705.69;;;12.46;89.00
42125;BME280;27787;44.594;11.046;2024-03-23T07:11:32;100692.44;;;12.55;88.77
42125;BME280;27787;44.594;11.046;2024-03-23T07:14:16;100692.44;;;12.60;89.43
42125;BME280;27787;44.594;11.046;2024-03-23T07:17:00;100691.53;;;12.59;89.72
42125;BME280;27787;44.594;11.046;2024-03-23T07:19:46;100695.06;;;12.60;90.77
42125;BME280;27787;44.594;11.046;2024-03-23T07:22:30;100694.19;;;12.62;91.49
42125;BME280;27787;44.594;11.046;2024-03-23T07:25:15;100700.34;;;12.69;92.01
42125;BME280;27787;44.594;11.046;2024-03-23T07:28:01;100694.16;;;12.75;91.78
42125;BME280;27787;44.594;11.046;2024-03-23T07:30:45;100682.66;;;12.76;91.09
42125;BME280;27787;44.594;11.046;2024-03-23T07:33:31;100679.16;;;12.77;90.76
42125;BME280;27787;44.594;11.046;2024-03-23T07:36:15;100671.19;;;12.83;90.51
42125;BME280;27787;44.594;11.046;2024-03-23T07:38:59;100662.31;;;12.93;90.17
42125;BME280;27787;44.594;11.046;2024-03-23T07:41:46;100673.75;;;13.07;90.15
42125;BME280;27787;44.594;11.046;2024-03-23T07:44:31;100667.53;;;13.20;89.88
42125;BME280;27787;44.594;11.046;2024-03-23T07:47:16;100656.84;;;13.36;89.68
42125;BME280;27787;44.594;11.046;2024-03-23T07:50:00;100644.34;;;13.51;88.90
42125;BME280;27787;44.594;11.046;2024-03-23T07:52:44;100642.50;;;13.67;88.35
42125;BME280;27787;44.594;11.046;2024-03-23T07:55:28;100640.63;;;13.80;86.97
42125;BME280;27787;44.594;11.046;2024-03-23T07:58:13;100644.06;;;13.91;86.40
42125;BME280;27787;44.594;11.046;2024-03-23T08:01:06;100634.25;;;14.02;85.44
42125;BME280;27787;44.594;11.046;2024-03-23T08:03:54;100640.34;;;14.12;84.87
42125;BME280;27787;44.594;11.046;2024-03-23T08:06:38;100633.22;;;14.20;84.33
42125;BME280;27787;44.594;11.046;2024-03-23T08:09:22;100624.28;;;14.27;83.41
42125;BME280;27787;44.594;11.046;2024-03-23T08:12:06;100629.53;;;14.35;82.85
42125;BME280;27787;44.594;11.046;2024-03-23T08:14:51;100620.63;;;14.39;82.17
42125;BME280;27787;44.594;11.046;2024-03-23T08:17:34;100624.13;;;14.44;81.74
42125;BME280;27787;44.594;11.046;2024-03-23T08:20:18;100617.00;;;14.51;80.31
42125;BME280;27787;44.594;11.046;2024-03-23T08:23:02;100624.88;;;14.57;79.30
42125;BME280;27787;44.594;11.046;2024-03-23T08:25:47;100611.53;;;14.63;78.01
42125;BME280;27787;44.594;11.046;2024-03-23T08:28:31;100615.00;;;14.69;76.83
42125;BME280;27787;44.594;11.046;2024-03-23T08:31:15;100612.25;;;14.77;76.50
42125;BME280;27787;44.594;11.046;2024-03-23T08:33:59;100596.22;;;14.83;75.34
42125;BME280;27787;44.594;11.046;2024-03-23T08:36:43;100592.63;;;14.89;74.27
42125;BME280;27787;44.594;11.046;2024-03-23T08:39:27;100596.97;;;14.94;73.50
42125;BME280;27787;44.594;11.046;2024-03-23T08:42:12;100598.66;;;15.01;72.82
42125;BME280;27787;44.594;11.046;2024-03-23T08:44:55;100585.22;;;15.09;73.13
42125;BME280;27787;44.594;11.046;2024-03-23T08:47:40;100581.66;;;15.13;73.44
42125;BME280;27787;44.594;11.046;2024-03-23T08:50:24;100577.16;;;15.17;73.50
42125;BME280;27787;44.594;11.046;2024-03-23T08:53:08;100565.63;;;15.18;73.49
42125;BME280;27787;44.594;11.046;2024-03-23T08:55:54;100562.03;;;15.20;74.06
42125;BME280;27787;44.594;11.046;2024-03-23T08:58:38;100561.97;;;15.26;74.84
42125;BME280;27787;44.594;11.046;2024-03-23T09:01:23;100565.41;;;15.31;74.69
42125;BME280;27787;44.594;11.046;2024-03-23T09:04:10;100558.25;;;15.37;71.39
42125;BME280;27787;44.594;11.046;2024-03-23T09:06:54;100557.28;;;15.42;71.68
42125;BME280;27787;44.594;11.046;2024-03-23T09:09:39;100544.81;;;15.44;71.80
42125;BME280;27787;44.594;11.046;2024-03-23T09:12:24;100550.97;;;15.48;71.63
42125;BME280;27787;44.594;11.046;2024-03-23T09:15:08;100555.34;;;15.52;71.07
42125;BME280;27787;44.594;11.046;2024-03-23T09:17:53;100553.50;;;15.55;69.71
42125;BME280;27787;44.594;11.046;2024-03-23T09:20:38;100552.59;;;15.56;68.53
42125;BME280;27787;44.594;11.046;2024-03-23T09:23:22;100551.69;;;15.60;67.44
42125;BME280;27787;44.594;11.046;2024-03-23T09:26:06;100542.69;;;15.68;66.50
42125;BME280;27787;44.594;11.046;2024-03-23T09:28:53;100548.78;;;15.76;66.93
42125;BME280;27787;44.594;11.046;2024-03-23T09:31:39;100543.38;;;15.80;66.93
42125;BME280;27787;44.594;11.046;2024-03-23T09:34:24;100527.25;;;15.88;66.96
42125;BME280;27787;44.594;11.046;2024-03-23T09:37:08;100524.34;;;16.00;67.74
42125;BME280;27787;44.594;11.046;2024-03-23T09:39:52;100518.94;;;16.06;68.14
42125;BME280;27787;44.594;11.046;2024-03-23T09:42:37;100518.88;;;16.09;65.79
42125;BME280;27787;44.594;11.046;2024-03-23T09:45:23;100528.56;;;16.12;65.53
42125;BME280;27787;44.594;11.046;2024-03-23T09:48:10;100528.38;;;16.22;64.39
42125;BME280;27787;44.594;11.046;2024-03-23T09:50:54;100534.38;;;16.34;65.18
42125;BME280;27787;44.594;11.046;2024-03-23T09:53:39;100523.56;;;16.40;63.25
42125;BME280;27787;44.594;11.046;2024-03-23T09:56:23;100523.47;;;16.46;62.36
42125;BME280;27787;44.594;11.046;2024-03-23T09:59:07;100527.88;;;16.47;61.17
42125;BME280;27787;44.594;11.046;2024-03-23T10:01:52;100523.28;;;16.55;60.54
42125;BME280;27787;44.594;11.046;2024-03-23T10:04:41;100523.03;;;16.66;59.46
42125;BME280;27787;44.594;11.046;2024-03-23T10:07:27;100516.66;;;16.74;60.54
42125;BME280;27787;44.594;11.046;2024-03-23T10:10:15;100515.63;;;16.82;60.49
42125;BME280;27787;44.594;11.046;2024-03-23T10:13:00;100518.31;;;16.82;60.20
42125;BME280;27787;44.594;11.046;2024-03-23T10:15:44;100513.53;;;16.96;61.83
42125;BME280;27787;44.594;11.046;2024-03-23T10:18:29;100510.63;;;17.06;61.57
42125;BME280;27787;44.594;11.046;2024-03-23T10:21:14;100512.22;;;17.14;60.45
42125;BME280;27787;44.594;11.046;2024-03-23T10:24:08;100501.13;;;17.32;58.71
42125;BME280;27787;44.594;11.046;2024-03-23T10:26:56;100495.50;;;17.43;57.01
42125;BME280;27787;44.594;11.046;2024-03-23T10:29:41;100493.88;;;17.37;57.08
42125;BME280;27787;44.594;11.046;2024-03-23T10:32:25;100487.75;;;17.33;57.11
42125;BME280;27787;44.594;11.046;2024-03-23T10:35:20;100476.25;;;17.30;57.50
42125;BME280;27787;44.594;11.046;2024-03-23T10:38:07;100468.47;;;17.22;58.04
42125;BME280;27787;44.594;11.046;2024-03-23T10:40:51;100475.25;;;17.35;58.23
42125;BME280;27787;44.594;11.046;2024-03-23T10:43:37;100464.25;;;17.48;57.62
42125;BME280;27787;44.594;11.046;2024-03-23T10:46:21;100447.41;;;17.46;58.45
42125;BME280;27787;44.594;11.046;2024-03-23T10:49:06;100455.38;;;17.47;58.33
42125;BME280;27787;44.594;11.046;2024-03-23T10:51:51;100442.81;;;17.51;55.57
42125;BME280;27787;44.594;11.046;2024-03-23T10:54:35;100432.84;;;17.59;55.13
42125;BME280;27787;44.594;11.046;2024-03-23T10:57:53;100432.69;;;17.63;55.95
42125;BME280;27787;44.594;11.046;2024-03-23T11:00:38;100420.22;;;17.64;57.62
42125;BME280;27787;44.594;11.046;2024-03-23T11:06:36;100405.19;;;17.61;57.37
42125;BME280;27787;44.594;11.046;2024-03-23T11:09:40;100404.81;;;17.75;56.69
42125;BME280;27787;44.594;11.046;2024-03-23T11:12:29;100404.09;;;17.68;56.90
42125;BME280;27787;44.594;11.046;2024-03-23T11:15:16;100401.31;;;17.73;55.23
42125;BME280;27787;44.594;11.046;2024-03-23T11:18:05;100405.66;;;17.77;54.94
42125;BME280;27787;44.594;11.046;2024-03-23T11:20:52;100399.34;;;17.80;55.96
42125;BME280;27787;44.594;11.046;2024-03-23T11:23:36;100391.38;;;17.78;56.35
42125;BME280;27787;44.594;11.046;2024-03-23T11:26:20;100381.53;;;17.80;56.44
42125;BME280;27787;44.594;11.046;2024-03-23T11:29:12;100372.53;;;17.84;56.18
42125;BME280;27787;44.594;11.046;2024-03-23T11:32:01;100368.19;;;17.80;55.93
42125;BME280;27787;44.594;11.046;2024-03-23T11:34:47;100370.03;;;17.78;54.41
42125;BME280;27787;44.594;11.046;2024-03-23T11:37:31;100366.47;;;17.78;55.10
42125;BME280;27787;44.594;11.046;2024-03-23T11:40:19;100371.69;;;17.82;55.47
42125;BME280;27787;44.594;11.046;2024-03-23T11:43:08;100370.50;;;17.92;53.02
42125;BME280;27787;44.594;11.046;2024-03-23T11:45:52;100365.91;;;17.97;52.88
42125;BME280;27787;44.594;11.046;2024-03-23T11:48:37;100356.88;;;18.02;53.14
42125;BME280;27787;44.594;11.046;2024-03-23T11:51:22;100343.28;;;18.09;51.54
42125;BME280;27787;44.594;11.046;2024-03-23T11:54:09;100322.97;;;18.04;51.44
42125;BME280;27787;44.594;11.046;2024-03-23T11:56:58;100316.97;;;17.95;52.32
42125;BME280;27787;44.594;11.046;2024-03-23T11:59:42;100318.16;;;17.87;52.72
42125;BME280;27787;44.594;11.046;2024-03-23T12:02:28;100308.47;;;17.83;53.73
42125;BME280;27787;44.594;11.046;2024-03-23T12:05:16;100303.09;;;17.84;54.69
42125;BME280;27787;44.594;11.046;2024-03-23T12:11:14;100280.94;;;17.81;54.15
42125;BME280;27787;44.594;11.046;2024-03-23T12:13:59;100280.00;;;17.82;54.52
42125;BME280;27787;44.594;11.046;2024-03-23T12:16:44;100272.81;;;17.84;54.63
42125;BME280;27787;44.594;11.046;2024-03-23T12:19:28;100275.38;;;17.88;54.47
42125;BME280;27787;44.594;11.046;2024-03-23T12:22:12;100265.47;;;17.92;52.99
42125;BME280;27787;44.594;11.046;2024-03-23T12:24:56;100259.03;;;17.99;52.61
42125;BME280;27787;44.594;11.046;2024-03-23T12:27:43;100253.69;;;17.99;53.62
42125;BME280;27787;44.594;11.046;2024-03-23T12:30:28;100252.66;;;18.03;53.07
42125;BME280;27787;44.594;11.046;2024-03-23T12:33:12;100241.75;;;18.11;52.75
42125;BME280;27787;44.594;11.046;2024-03-23T12:35:57;100236.41;;;18.11;52.94
42125;BME280;27787;44.594;11.046;2024-03-23T12:38:41;100240.94;;;18.07;53.63
42125;BME280;27787;44.594;11.046;2024-03-23T12:41:25;100226.66;;;18.08;53.65
42125;BME280;27787;44.594;11.046;2024-03-23T12:44:09;100216.03;;;18.07;53.79
42125;BME280;27787;44.594;11.046;2024-03-23T12:46:55;100207.91;;;18.10;53.93
42125;BME280;27787;44.594;11.046;2024-03-23T12:49:39;100204.09;;;18.18;54.18
42125;BME280;27787;44.594;11.046;2024-03-23T12:52:23;100198.56;;;18.24;53.78
42125;BME280;27787;44.594;11.046;2024-03-23T12:55:12;100191.19;;;18.31;53.29
42125;BME280;27787;44.594;11.046;2024-03-23T12:57:56;100187.47;;;18.35;53.27
42125;BME280;27787;44.594;11.046;2024-03-23T13:00:43;100171.25;;;18.41;53.20
42125;BME280;27787;44.594;11.046;2024-03-23T13:03:27;100174.56;;;18.48;52.70
42125;BME280;27787;44.594;11.046;2024-03-23T13:06:12;100165.53;;;18.52;52.58
42125;BME280;27787;44.594;11.046;2024-03-23T13:08:56;100153.88;;;18.54;53.36
42125;BME280;27787;44.594;11.046;2024-03-23T13:11:41;100138.53;;;18.60;53.93
42125;BME280;27787;44.594;11.046;2024-03-23T13:14:25;100140.09;;;18.67;54.09
42125;BME280;27787;44.594;11.046;2024-03-23T13:17:09;100140.03;;;18.68;54.40
42125;BME280;27787;44.594;11.046;2024-03-23T13:19:54;100148.75;;;18.73;53.74
42125;BME280;27787;44.594;11.046;2024-03-23T13:22:39;100148.63;;;18.78;53.89
42125;BME280;27787;44.594;11.046;2024-03-23T13:25:23;100124.44;;;18.81;53.71
42125;BME280;27787;44.594;11.046;2024-03-23T13:28:08;100121.56;;;18.85;53.65
42125;BME280;27787;44.594;11.046;2024-03-23T13:30:55;100124.09;;;18.90;53.54
42125;BME280;27787;44.594;11.046;2024-03-23T13:33:39;100124.78;;;18.95;53.60
42125;BME280;27787;44.594;11.046;2024-03-23T13:36:26;100106.75;;;19.00;53.37
42125;BME280;27787;44.594;11.046;2024-03-23T13:39:11;100112.81;;;19.05;53.42
42125;BME280;27787;44.594;11.046;2024-03-23T13:41:56;100107.13;;;19.14;53.78
42125;BME280;27787;44.594;11.046;2024-03-23T13:44:40;100098.03;;;19.19;53.59
42125;BME280;27787;44.594;11.046;2024-03-23T13:47:24;100099.66;;;19.23;53.13
42125;BME280;27787;44.594;11.046;2024-03-23T13:50:08;100096.03;;;19.24;53.15
42125;BME280;27787;44.594;11.046;2024-03-23T13:52:53;100089.75;;;19.25;52.97
42125;BME280;27787;44.594;11.046;2024-03-23T13:55:37;100074.63;;;19.24;53.02
42125;BME280;27787;44.594;11.046;2024-03-23T13:58:22;100071.97;;;19.24;52.60
42125;BME280;27787;44.594;11.046;2024-03-23T14:01:07;100062.19;;;19.23;52.84
42125;BME280;27787;44.594;11.046;2024-03-23T14:03:52;100053.06;;;19.28;52.70
42125;BME280;27787;44.594;11.046;2024-03-23T14:06:37;100050.94;;;19.36;52.84
42125;BME280;27787;44.594;11.046;2024-03-23T14:09:25;100048.91;;;19.43;52.58
42125;BME280;27787;44.594;11.046;2024-03-23T14:12:09;100053.94;;;19.51;53.21
42125;BME280;27787;44.594;11.046;2024-03-23T14:14:53;100035.06;;;19.55;52.95
42125;BME280;27787;44.594;11.046;2024-03-23T14:17:38;100043.69;;;19.62;52.41
42125;BME280;27787;44.594;11.046;2024-03-23T14:20:23;100042.50;;;19.69;52.33
42125;BME280;27787;44.594;11.046;2024-03-23T14:23:07;100048.47;;;19.76;52.22
42125;BME280;27787;44.594;11.046;2024-03-23T14:25:53;100045.63;;;19.80;51.84
42125;BME280;27787;44.594;11.046;2024-03-23T14:28:37;100040.84;;;19.87;52.11
42125;BME280;27787;44.594;11.046;2024-03-23T14:31:21;100045.41;;;20.05;50.56
42125;BME280;27787;44.594;11.046;2024-03-23T14:34:06;100053.75;;;20.19;50.23
42125;BME280;27787;44.594;11.046;2024-03-23T14:36:50;100048.13;;;20.25;50.24
42125;BME280;27787;44.594;11.046;2024-03-23T14:39:34;100044.25;;;20.32;50.77
42125;BME280;27787;44.594;11.046;2024-03-23T14:42:18;100035.19;;;20.35;50.46
42125;BME280;27787;44.594;11.046;2024-03-23T14:45:03;100026.94;;;20.40;50.29
42125;BME280;27787;44.594;11.046;2024-03-23T14:47:47;100026.75;;;20.44;50.48
42125;BME280;27787;44.594;11.046;2024-03-23T14:50:32;100038.41;;;20.64;49.99
42125;BME280;27787;44.594;11.046;2024-03-23T14:53:16;100039.25;;;20.64;50.02
42125;BME280;27787;44.594;11.046;2024-03-23T14:56:01;100038.25;;;20.67;49.78
42125;BME280;27787;44.594;11.046;2024-03-23T14:58:46;100034.50;;;20.71;49.82
42125;BME280;27787;44.594;11.046;2024-03-23T15:01:31;100039.56;;;20.77;50.03
42125;BME280;27787;44.594;11.046;2024-03-23T15:04:16;100027.66;;;20.82;49.63
42125;BME280;27787;44.594;11.046;2024-03-23T15:07:00;100033.50;;;20.92;50.01
42125;BME280;27787;44.594;11.046;2024-03-23T15:09:44;100032.19;;;21.01;49.56
42125;BME280;27787;44.594;11.046;2024-03-23T15:12:29;100025.66;;;21.06;49.14